Time;durP1;ratioP1;P1;durP2;ratioP2;P2;SDS_P1;SDS_P2;PMS_P1;PMS_P2;Temp;Humidity;BMP_temperature;BMP_pressure;BME280_temperature;BME280_humidity;BME280_pressure;Samples;Min_cycle;Max_cycle;Signal;HPM_P1;HPM_P2
2021/05/10 00:02:16;;;;;;;13.08;11.05;;;;;;;7.65;59.64;100685.16;1774525;80;21173;-74
2021/05/10 00:04:45;;;;;;;13.50;12.10;;;;;;;7.66;59.50;100677.95;1785818;78;21141;-72
2021/05/10 00:07:12;;;;;;;14.78;10.58;;;;;;;7.67;59.24;100675.59;1812488;78;21177;-72
2021/05/10 00:09:39;;;;;;;15.23;11.85;;;;;;;7.68;58.66;100681.23;1720195;82;21154;-74
2021/05/10 00:12:09;;;;;;;13.70;12.15;;;;;;;7.68;58.42;100681.23;1743231;82;22409;-72
2021/05/10 00:14:48;;;;;;;17.17;13.72;;;;;;;7.70;58.15;100684.53;1717145;82;21157;-73
2021/05/10 00:17:16;;;;;;;14.90;12.53;;;;;;;7.71;58.17;100679.50;1729491;82;21682;-73
2021/05/10 00:19:45;;;;;;;13.35;11.78;;;;;;;7.71;57.98;100682.17;1729978;82;21134;-73
2021/05/10 00:22:13;;;;;;;17.05;13.83;;;;;;;7.70;57.94;100685.36;1755601;80;21160;-75
2021/05/10 00:24:43;;;;;;;14.83;12.70;;;;;;;7.70;57.93;100682.69;1698135;81;21439;-75
2021/05/10 00:27:12;;;;;;;23.85;13.65;;;;;;;7.71;58.19;100683.52;1744479;81;21051;-71
2021/05/10 00:29:40;;;;;;;12.88;11.57;;;;;;;7.69;58.36;100682.38;1738250;81;21143;-73
2021/05/10 00:32:10;;;;;;;14.65;12.82;;;;;;;7.68;58.49;100682.05;1749866;80;21145;-74
2021/05/10 00:34:38;;;;;;;15.28;13.72;;;;;;;7.67;58.82;100676.93;1754831;80;21129;-74
2021/05/10 00:37:06;;;;;;;14.50;12.78;;;;;;;7.63;58.83;100677.00;1740498;81;22197;-75
2021/05/10 00:39:33;;;;;;;21.95;16.87;;;;;;;7.60;59.42;100686.29;1738163;81;21241;-73
2021/05/10 00:42:01;;;;;;;25.82;17.82;;;;;;;7.55;59.67;100679.90;1733832;82;21127;-70
2021/05/10 00:44:30;;;;;;;24.27;15.68;;;;;;;7.52;59.66;100683.83;1731373;81;21221;-83
2021/05/10 00:46:59;;;;;;;25.90;15.03;;;;;;;7.49;59.77;100682.88;1736592;82;21146;-71
2021/05/10 00:49:27;;;;;;;16.30;14.65;;;;;;;7.47;60.05;100685.47;1727388;82;21739;-71
2021/05/10 00:51:58;;;;;;;19.40;13.85;;;;;;;7.42;60.52;100686.91;1760424;80;21011;-72
2021/05/10 00:54:26;;;;;;;25.75;14.43;;;;;;;7.37;60.45;100698.73;1761678;80;21613;-72
2021/05/10 00:56:54;;;;;;;21.30;15.30;;;;;;;7.33;60.57;100696.68;1712314;82;21077;-74
2021/05/10 00:59:22;;;;;;;21.57;14.98;;;;;;;7.31;60.51;100699.55;1731422;82;21211;-71
2021/05/10 01:01:51;;;;;;;21.45;13.95;;;;;;;7.29;60.74;100693.56;1743607;81;22699;-71
2021/05/10 01:04:20;;;;;;;19.45;13.72;;;;;;;7.26;60.82;100695.32;1739826;81;21188;-70
2021/05/10 01:06:48;;;;;;;21.68;15.25;;;;;;;7.25;60.93;100695.00;1757691;81;21176;-75
2021/05/10 01:09:16;;;;;;;33.08;14.95;;;;;;;7.24;60.99;100700.58;1688996;82;21232;-71
2021/05/10 01:11:44;;;;;;;22.55;16.23;;;;;;;7.21;61.15;100700.45;1747921;81;21575;-71
2021/05/10 01:14:13;;;;;;;21.20;15.05;;;;;;;7.19;61.33;100695.84;1710534;81;21961;-70
2021/05/10 01:16:40;;;;;;;20.15;15.32;;;;;;;7.17;61.47;100694.37;1753628;81;21176;-70
2021/05/10 01:19:09;;;;;;;24.92;15.03;;;;;;;7.15;61.61;100699.09;1743821;81;21169;-70
2021/05/10 01:21:37;;;;;;;27.30;18.87;;;;;;;7.13;61.64;100695.81;1733340;81;21759;-70
2021/05/10 01:24:07;;;;;;;20.43;14.23;;;;;;;7.12;61.74;100700.84;1718306;81;21146;-71
2021/05/10 01:26:36;;;;;;;27.22;17.77;;;;;;;7.09;61.88;100699.41;1728066;81;21207;-70
2021/05/10 01:29:04;;;;;;;22.17;17.02;;;;;;;7.08;61.85;100703.62;1718969;82;21039;-70
2021/05/10 01:31:33;;;;;;;27.00;17.98;;;;;;;7.07;61.88;100704.13;1736131;81;21003;-71
2021/05/10 01:34:03;;;;;;;26.82;18.25;;;;;;;7.07;61.83;100698.78;1741049;81;21055;-70
2021/05/10 01:36:30;;;;;;;31.33;17.02;;;;;;;7.07;61.81;100707.31;1717552;81;21144;-71
2021/05/10 01:38:58;;;;;;;28.17;17.75;;;;;;;7.06;61.84;100706.48;1743602;81;22827;-70
2021/05/10 01:41:26;;;;;;;38.05;19.52;;;;;;;7.07;61.81;100709.48;1740730;81;21173;-72
2021/05/10 01:43:54;;;;;;;30.05;19.70;;;;;;;7.06;61.96;100705.15;1737419;82;21619;-69
2021/05/10 01:46:24;;;;;;;29.92;17.50;;;;;;;7.06;62.25;100705.66;1721486;82;21038;-69
2021/05/10 01:48:53;;;;;;;36.45;19.25;;;;;;;7.06;62.13;100711.01;1741652;82;21162;-70
2021/05/10 01:51:25;;;;;;;34.48;20.55;;;;;;;7.06;62.02;100709.67;1706684;82;22591;-70
2021/05/10 01:53:53;;;;;;;27.73;18.52;;;;;;;7.06;62.03;100720.38;1741662;81;21145;-70
2021/05/10 01:56:21;;;;;;;27.50;19.30;;;;;;;7.06;62.16;100723.05;1734291;81;21125;-71
2021/05/10 01:58:53;;;;;;;32.90;19.05;;;;;;;7.05;62.20;100724.09;1700165;83;21200;-71
2021/05/10 02:01:23;;;;;;;28.95;19.27;;;;;;;7.05;62.25;100730.23;1740533;81;21122;-69
2021/05/10 02:03:51;;;;;;;32.13;19.75;;;;;;;7.04;62.49;100729.13;1722511;81;22121;-70
2021/05/10 02:06:19;;;;;;;30.00;19.05;;;;;;;7.01;62.75;100727.66;1749685;81;21880;-70
2021/05/10 02:08:48;;;;;;;32.70;20.55;;;;;;;6.99;62.85;100730.56;1747404;81;21023;-69
2021/05/10 02:11:17;;;;;;;32.38;20.43;;;;;;;6.97;62.88;100735.27;1723032;81;21038;-71
2021/05/10 02:13:46;;;;;;;27.98;19.57;;;;;;;6.96;63.02;100730.94;1767526;80;21146;-70
2021/05/10 02:16:14;;;;;;;28.57;19.05;;;;;;;6.95;62.97;100732.50;1753544;80;21488;-71
2021/05/10 02:18:42;;;;;;;26.75;19.20;;;;;;;6.94;62.82;100734.86;1753272;80;21134;-70
2021/05/10 02:21:10;;;;;;;24.57;17.77;;;;;;;6.93;62.71;100738.55;1748152;81;21162;-70
2021/05/10 02:23:39;;;;;;;27.85;18.65;;;;;;;6.92;62.66;100740.39;1740572;81;21106;-70
2021/05/10 02:26:08;;;;;;;24.63;19.40;;;;;;;6.92;62.71;100735.55;1758503;81;21146;-70
2021/05/10 02:28:38;;;;;;;30.00;20.82;;;;;;;6.91;62.72;100741.41;1752045;81;21642;-72
2021/05/10 02:31:06;;;;;;;28.25;19.37;;;;;;;6.90;62.75;100741.13;1731276;81;21180;-71
2021/05/10 02:33:34;;;;;;;28.52;19.12;;;;;;;6.90;62.86;100738.45;1734303;81;21142;-71
2021/05/10 02:36:04;;;;;;;31.93;21.50;;;;;;;6.89;62.90;100741.31;1745442;81;21125;-71
2021/05/10 02:38:32;;;;;;;35.45;21.50;;;;;;;6.90;62.93;100742.97;1767409;80;21557;-68
2021/05/10 02:41:01;;;;;;;22.90;16.42;;;;;;;6.90;62.97;100741.13;1767440;80;22743;-71
2021/05/10 02:43:29;;;;;;;24.20;15.50;;;;;;;6.89;63.45;100737.30;1758706;80;21155;-69
2021/05/10 02:45:58;;;;;;;28.38;16.02;;;;;;;6.81;64.75;100739.63;1777859;80;21157;-70
2021/05/10 02:48:28;;;;;;;27.07;15.63;;;;;;;6.65;65.60;100739.98;1742255;80;21126;-71
2021/05/10 02:50:56;;;;;;;24.75;16.80;;;;;;;6.50;66.30;100741.95;1767241;80;21146;-73
2021/05/10 02:53:24;;;;;;;25.65;15.60;;;;;;;6.43;66.90;100742.41;1762749;81;23584;-70
2021/05/10 02:55:51;;;;;;;24.25;14.18;;;;;;;6.40;67.19;100747.66;1756192;80;21011;-70
2021/05/10 02:58:19;;;;;;;26.70;14.10;;;;;;;6.41;67.57;100743.14;1737186;81;21560;-70
2021/05/10 03:00:48;;;;;;;30.97;20.43;;;;;;;6.41;67.77;100747.15;1747296;81;21209;-71
2021/05/10 03:03:16;;;;;;;29.00;18.80;;;;;;;6.43;67.60;100748.59;1748131;80;21156;-70
2021/05/10 03:05:45;;;;;;;31.23;19.10;;;;;;;6.49;67.45;100755.83;1760199;81;22379;-71
2021/05/10 03:08:12;;;;;;;25.80;16.93;;;;;;;6.59;67.29;100752.80;1735896;82;21126;-69
2021/05/10 03:10:41;;;;;;;21.68;16.55;;;;;;;6.74;67.06;100759.34;1741364;81;21181;-69
2021/05/10 03:13:08;;;;;;;21.52;14.83;;;;;;;6.88;66.76;100753.03;1735457;82;21181;-71
2021/05/10 03:15:36;;;;;;;21.17;14.13;;;;;;;7.05;66.26;100760.20;1752252;81;21146;-70
2021/05/10 03:18:04;;;;;;;19.32;11.93;;;;;;;7.18;65.69;100764.25;1698100;83;21630;-69
2021/05/10 03:20:34;;;;;;;18.05;12.10;;;;;;;7.27;65.11;100760.36;1738601;81;21186;-69
2021/05/10 03:23:02;;;;;;;16.40;10.60;;;;;;;7.31;64.51;100765.11;1691759;83;21149;-72
2021/05/10 03:25:30;;;;;;;17.05;10.82;;;;;;;7.34;64.04;100765.20;1749322;81;21011;-70
2021/05/10 03:27:58;;;;;;;18.25;11.70;;;;;;;7.35;63.81;100774.38;1756739;80;21173;-72
2021/05/10 03:30:29;;;;;;;19.15;11.85;;;;;;;7.37;63.71;100776.35;1795659;78;21160;-70
2021/05/10 03:32:57;;;;;;;17.25;11.25;;;;;;;7.39;63.94;100774.79;1769652;80;21599;-70
2021/05/10 03:35:26;;;;;;;21.27;12.85;;;;;;;7.41;64.03;100780.78;1726844;81;21670;-70
2021/05/10 03:37:55;;;;;;;18.23;12.73;;;;;;;7.41;64.41;100780.78;1784367;78;21136;-70
2021/05/10 03:40:23;;;;;;;16.75;12.68;;;;;;;7.43;64.74;100784.09;1803211;78;21114;-72
2021/05/10 03:42:53;;;;;;;24.90;14.20;;;;;;;7.44;64.83;100793.74;1787691;78;22219;-70
2021/05/10 03:45:21;;;;;;;16.45;13.40;;;;;;;7.47;64.87;100789.86;1758804;80;21623;-70
2021/05/10 03:47:49;;;;;;;25.40;14.78;;;;;;;7.49;65.07;100797.98;1791084;79;21165;-70
2021/05/10 03:50:21;;;;;;;27.73;16.42;;;;;;;7.51;64.92;100801.80;1757498;80;21618;-70
2021/05/10 03:52:50;;;;;;;17.02;13.80;;;;;;;7.53;64.63;100800.55;1764738;79;21188;-71
2021/05/10 03:55:21;;;;;;;20.45;12.47;;;;;;;7.57;64.33;100798.33;1783192;78;21196;-70
2021/05/10 03:57:50;;;;;;;28.35;19.02;;;;;;;7.61;63.64;100800.90;1812005;78;21165;-72
2021/05/10 04:00:19;;;;;;;36.17;22.82;;;;;;;7.67;63.95;100800.09;1765776;78;21201;-71
2021/05/10 04:02:46;;;;;;;20.70;14.38;;;;;;;7.74;64.05;100806.27;1811383;78;21160;-70
2021/05/10 04:05:28;;;;;;;27.65;14.20;;;;;;;7.78;63.79;100802.15;1808189;78;21082;-69
2021/05/10 04:15:49;;;;;;;10.18;8.73;;;;;;;8.02;60.88;100808.25;1775223;80;21637;-71
2021/05/10 04:18:20;;;;;;;15.93;10.28;;;;;;;8.13;60.03;100811.66;1775022;80;21152;-69
2021/05/10 04:20:49;;;;;;;12.93;8.08;;;;;;;8.22;59.58;100810.42;1775743;80;21214;-71
2021/05/10 04:23:19;;;;;;;21.05;10.95;;;;;;;8.29;59.12;100813.11;1789945;80;21190;-70
2021/05/10 04:25:48;;;;;;;10.80;8.83;;;;;;;8.37;58.81;100812.09;1754626;80;21614;-69
2021/05/10 04:28:16;;;;;;;12.63;9.48;;;;;;;8.46;58.18;100815.69;1782037;80;21134;-70
2021/05/10 04:30:45;;;;;;;15.10;8.55;;;;;;;8.54;57.76;100820.81;1745375;80;21154;-69
2021/05/10 04:33:13;;;;;;;13.72;10.68;;;;;;;8.63;57.53;100824.13;1781956;80;22183;-70
2021/05/10 04:35:42;;;;;;;12.82;9.98;;;;;;;8.71;57.11;100827.41;1771449;80;21180;-70
2021/05/10 04:38:13;;;;;;;15.50;10.93;;;;;;;8.81;57.06;100827.48;1762631;80;21419;-70
2021/05/10 04:40:40;;;;;;;13.32;10.32;;;;;;;8.88;57.03;100826.42;1768674;80;21138;-70
2021/05/10 04:43:09;;;;;;;13.45;9.78;;;;;;;8.95;57.10;100825.89;1783490;80;21121;-70
2021/05/10 04:45:38;;;;;;;13.58;9.95;;;;;;;9.02;57.06;100837.41;1788854;80;21371;-69
2021/05/10 04:48:06;;;;;;;14.87;10.95;;;;;;;9.10;56.84;100837.72;1784203;80;21140;-79
2021/05/10 04:50:34;;;;;;;14.93;11.10;;;;;;;9.17;56.81;100837.98;1782023;80;21118;-71
2021/05/10 04:53:02;;;;;;;14.13;11.33;;;;;;;9.27;57.00;100844.76;1778710;80;21125;-72
2021/05/10 04:55:30;;;;;;;16.10;10.72;;;;;;;9.36;56.86;100849.67;1745343;81;21599;-72
2021/05/10 04:57:58;;;;;;;11.10;9.05;;;;;;;9.43;56.82;100855.02;1703564;83;21385;-69
2021/05/10 05:00:26;;;;;;;15.25;11.20;;;;;;;9.48;56.61;100851.19;1740556;81;21161;-71
2021/05/10 05:02:54;;;;;;;14.25;10.45;;;;;;;9.55;56.47;100854.64;1720876;82;21141;-70
2021/05/10 05:05:22;;;;;;;12.40;9.33;;;;;;;9.60;56.27;100850.80;1727969;82;21074;-69
2021/05/10 05:07:49;;;;;;;10.25;8.95;;;;;;;9.67;56.06;100848.08;1736771;82;21158;-69
2021/05/10 05:10:17;;;;;;;12.50;9.10;;;;;;;9.73;55.58;100852.60;1734631;81;21643;-71
2021/05/10 05:12:48;;;;;;;13.68;11.12;;;;;;;9.81;55.56;100857.20;1704552;83;21176;-69
2021/05/10 05:15:18;;;;;;;15.55;9.18;;;;;;;9.89;55.10;100858.27;1684798;84;21119;-69
2021/05/10 05:17:46;;;;;;;16.35;10.28;;;;;;;9.97;54.92;100854.00;1712470;83;21118;-69
2021/05/10 05:20:18;;;;;;;15.95;9.38;;;;;;;10.06;54.92;100851.34;1723706;82;21149;-74
2021/05/10 05:22:47;;;;;;;12.07;8.95;;;;;;;10.13;54.48;100853.97;1721121;82;21273;-69
2021/05/10 05:25:15;;;;;;;9.55;8.05;;;;;;;10.19;54.10;100844.24;1736483;82;21593;-70
2021/05/10 05:27:43;;;;;;;10.55;9.20;;;;;;;10.25;53.66;100848.23;1739552;81;21102;-69
2021/05/10 05:30:14;;;;;;;8.90;7.95;;;;;;;10.31;53.49;100850.57;1719650;83;21130;-73
2021/05/10 05:32:41;;;;;;;11.70;8.88;;;;;;;10.37;53.36;100853.19;1689570;83;21130;-73
2021/05/10 05:35:10;;;;;;;12.28;9.28;;;;;;;10.45;53.27;100854.79;1734397;81;22054;-71
2021/05/10 05:37:38;;;;;;;12.03;6.80;;;;;;;10.50;53.20;100850.92;1707088;83;21053;-72
2021/05/10 05:40:09;;;;;;;12.60;8.83;;;;;;;10.59;53.16;100845.55;1700153;83;21092;-69
2021/05/10 05:42:38;;;;;;;15.00;9.40;;;;;;;10.69;53.28;100851.77;1743401;81;21066;-70
2021/05/10 05:45:09;;;;;;;12.93;9.00;;;;;;;10.76;53.26;100851.99;1717539;83;21153;-70
2021/05/10 05:47:36;;;;;;;11.70;8.55;;;;;;;10.85;53.42;100852.52;1730488;82;21207;-70
2021/05/10 05:50:06;;;;;;;11.18;8.70;;;;;;;10.94;53.28;100857.39;1718283;83;21177;-70
2021/05/10 05:52:34;;;;;;;11.40;8.40;;;;;;;11.03;53.08;100856.56;1747434;81;21153;-71
2021/05/10 05:55:04;;;;;;;12.65;8.83;;;;;;;11.10;52.98;100860.53;1715917;81;21133;-70
2021/05/10 05:57:33;;;;;;;11.15;7.78;;;;;;;11.16;52.81;100859.12;1713932;82;21118;-69
2021/05/10 06:00:02;;;;;;;11.48;8.38;;;;;;;11.22;52.67;100852.81;1711424;83;21275;-70
2021/05/10 06:02:30;;;;;;;8.80;7.03;;;;;;;11.31;52.27;100852.02;1714072;83;21158;-71
2021/05/10 06:05:00;;;;;;;13.78;7.85;;;;;;;11.41;51.98;100852.30;1719344;81;21566;-69
2021/05/10 06:07:30;;;;;;;10.35;7.00;;;;;;;11.50;51.22;100848.77;1711090;83;21185;-70
2021/05/10 06:09:58;;;;;;;8.18;6.20;;;;;;;11.59;50.93;100852.27;1690369;82;21595;-70
2021/05/10 06:12:27;;;;;;;8.85;6.83;;;;;;;11.68;50.69;100851.41;1741151;81;22583;-72
2021/05/10 06:14:57;;;;;;;9.08;6.37;;;;;;;11.76;50.44;100853.28;1708418;83;21189;-72
2021/05/10 06:17:24;;;;;;;9.85;6.70;;;;;;;11.86;50.11;100854.08;1714913;83;22250;-71
2021/05/10 06:19:53;;;;;;;7.55;5.12;;;;;;;11.96;50.14;100858.39;1714574;83;21169;-69
2021/05/10 06:22:21;;;;;;;7.72;5.00;;;;;;;12.05;49.80;100857.53;1738536;81;21232;-71
2021/05/10 06:24:49;;;;;;;7.20;4.72;;;;;;;12.13;49.29;100863.41;1680614;83;21410;-76
2021/05/10 06:27:17;;;;;;;6.65;4.42;;;;;;;12.23;48.50;100858.80;1696735;83;21643;-70
2021/05/10 06:29:45;;;;;;;10.85;5.45;;;;;;;12.31;48.37;100862.52;1758158;80;21133;-70
2021/05/10 06:32:12;;;;;;;4.97;4.45;;;;;;;12.39;48.21;100862.70;1756844;80;21567;-71
2021/05/10 06:34:41;;;;;;;5.50;4.50;;;;;;;12.46;47.56;100864.77;1746634;80;21189;-70
2021/05/10 06:37:08;;;;;;;4.53;3.72;;;;;;;12.55;45.67;100862.84;1744442;81;21884;-72
2021/05/10 06:39:39;;;;;;;5.22;3.20;;;;;;;12.63;44.93;100867.88;1753297;80;21015;-70
2021/05/10 06:42:08;;;;;;;4.65;2.70;;;;;;;12.69;44.03;100859.38;1781361;80;21165;-71
2021/05/10 06:44:36;;;;;;;3.60;2.40;;;;;;;12.76;43.76;100861.97;1756961;80;21568;-70
2021/05/10 06:47:05;;;;;;;4.87;2.95;;;;;;;12.81;43.44;100866.93;1715841;83;21168;-71
2021/05/10 06:49:34;;;;;;;5.20;3.20;;;;;;;12.90;43.05;100870.12;1721862;83;22294;-71
2021/05/10 06:52:02;;;;;;;4.58;2.67;;;;;;;12.96;43.21;100866.45;1721591;82;21046;-70
2021/05/10 06:54:30;;;;;;;3.37;2.47;;;;;;;13.02;42.09;100873.61;1769132;80;21181;-71
2021/05/10 06:56:58;;;;;;;4.35;3.25;;;;;;;13.08;40.93;100877.55;1782770;80;21189;-70
2021/05/10 06:59:27;;;;;;;4.90;3.30;;;;;;;13.16;40.97;100871.50;1783111;80;21166;-69
2021/05/10 07:01:55;;;;;;;2.85;2.52;;;;;;;13.21;41.13;100868.39;1782857;80;21279;-71
2021/05/10 07:04:25;;;;;;;4.37;2.42;;;;;;;13.28;40.77;100865.04;1760794;80;21610;-71
2021/05/10 07:06:53;;;;;;;4.95;2.70;;;;;;;13.36;40.61;100854.37;1691746;82;21165;-71
2021/05/10 07:09:22;;;;;;;4.30;2.08;;;;;;;13.43;40.37;100855.86;1731418;82;21143;-70
2021/05/10 07:11:52;;;;;;;4.53;3.35;;;;;;;13.50;39.41;100857.09;1735887;82;22222;-70
2021/05/10 07:14:21;;;;;;;5.60;2.85;;;;;;;13.56;39.00;100851.25;1722984;82;22727;-74
2021/05/10 07:16:50;;;;;;;4.12;2.22;;;;;;;13.60;39.03;100849.18;1707752;82;21607;-74
2021/05/10 07:19:19;;;;;;;6.12;2.83;;;;;;;13.67;38.55;100849.84;1734074;82;21059;-71
2021/05/10 07:21:48;;;;;;;2.90;2.58;;;;;;;13.73;38.91;100848.88;1726089;82;21170;-71
2021/05/10 07:24:18;;;;;;;3.85;2.33;;;;;;;13.83;38.29;100844.19;1713357;82;21141;-69
2021/05/10 07:26:46;;;;;;;4.60;2.45;;;;;;;13.90;37.99;100850.28;1724521;83;22298;-70
2021/05/10 07:29:14;;;;;;;3.60;3.08;;;;;;;13.94;38.26;100842.79;1722231;82;21124;-71
2021/05/10 07:31:42;;;;;;;6.00;2.33;;;;;;;14.00;38.24;100847.77;1691718;83;21196;-71
2021/05/10 07:34:10;;;;;;;2.55;2.30;;;;;;;14.07;38.17;100843.00;1721886;83;21133;-73
2021/05/10 07:36:38;;;;;;;2.25;1.70;;;;;;;14.15;37.53;100844.50;1711392;83;21114;-73
2021/05/10 07:39:06;;;;;;;2.80;2.20;;;;;;;14.20;37.26;100841.31;1678876;83;21148;-71
2021/05/10 07:41:34;;;;;;;3.65;2.40;;;;;;;14.27;37.62;100840.64;1726745;83;21113;-71
2021/05/10 07:44:04;;;;;;;2.85;2.27;;;;;;;14.33;37.49;100840.19;1725676;83;21157;-71
2021/05/10 07:46:31;;;;;;;2.42;2.10;;;;;;;14.39;37.10;100836.51;1723725;83;21156;-75
2021/05/10 07:48:59;;;;;;;2.17;1.85;;;;;;;14.46;37.31;100833.64;1724644;83;21144;-72
2021/05/10 07:51:28;;;;;;;3.05;2.30;;;;;;;14.46;36.03;100824.17;1724560;83;21266;-71
2021/05/10 07:53:56;;;;;;;4.17;2.25;;;;;;;14.46;36.45;100820.11;1723061;82;21188;-72
2021/05/10 07:56:24;;;;;;;2.62;1.67;;;;;;;14.50;36.13;100818.55;1724300;83;21161;-72
2021/05/10 07:58:54;;;;;;;9.63;6.55;;;;;;;14.55;35.70;100823.50;1721461;83;21185;-75
2021/05/10 08:01:24;;;;;;;3.25;2.90;;;;;;;14.58;35.70;100808.67;1719824;81;21158;-75
2021/05/10 08:03:51;;;;;;;2.15;1.95;;;;;;;14.64;35.64;100811.18;1673089;84;21762;-76
2021/05/10 08:06:20;;;;;;;3.00;2.58;;;;;;;14.67;35.51;100806.64;1724715;83;21196;-74
2021/05/10 08:08:48;;;;;;;5.97;2.87;;;;;;;14.72;35.29;100813.45;1723604;83;21105;-75
2021/05/10 08:11:18;;;;;;;5.50;4.37;;;;;;;14.71;35.31;100807.77;1689913;84;21201;-71
2021/05/10 08:13:45;;;;;;;3.83;2.80;;;;;;;14.75;35.49;100811.62;1673726;83;21149;-71
2021/05/10 08:16:13;;;;;;;4.67;2.77;;;;;;;14.81;35.01;100801.14;1726170;83;22643;-75
2021/05/10 08:18:42;;;;;;;3.33;2.37;;;;;;;14.88;35.14;100804.19;1697362;84;21144;-69
2021/05/10 08:21:10;;;;;;;2.40;1.70;;;;;;;14.95;34.97;100802.95;1695986;84;21117;-73
2021/05/10 08:23:38;;;;;;;3.02;2.72;;;;;;;14.99;34.68;100808.14;1721533;81;21201;-72
2021/05/10 08:26:07;;;;;;;3.67;2.72;;;;;;;15.01;34.51;100798.42;1747010;81;21559;-73
2021/05/10 08:28:36;;;;;;;3.08;2.10;;;;;;;15.04;34.38;100799.26;1751620;81;21341;-71
2021/05/10 08:31:05;;;;;;;1.75;1.60;;;;;;;15.09;34.48;100789.84;1716805;82;21151;-76
2021/05/10 08:33:33;;;;;;;2.30;2.10;;;;;;;15.16;34.08;100789.92;1707830;81;21131;-71
2021/05/10 08:36:01;;;;;;;2.17;1.92;;;;;;;15.24;34.35;100783.25;1718427;83;21176;-70
2021/05/10 08:38:30;;;;;;;5.20;2.50;;;;;;;15.34;34.66;100782.01;1746689;81;21070;-71
2021/05/10 08:40:57;;;;;;;1.95;1.77;;;;;;;15.46;34.82;100775.89;1713969;81;21161;-74
2021/05/10 08:43:26;;;;;;;6.53;2.35;;;;;;;15.56;33.52;100776.03;1708253;83;21443;-76
2021/05/10 08:45:55;;;;;;;4.72;2.22;;;;;;;15.59;34.04;100778.75;1714664;83;21137;-76
2021/05/10 08:48:24;;;;;;;2.50;2.10;;;;;;;15.65;34.45;100770.95;1736773;82;21046;-78
2021/05/10 08:50:53;;;;;;;2.58;2.17;;;;;;;15.76;34.38;100769.16;1711947;82;21210;-75
2021/05/10 08:53:35;;;;;;;2.40;2.20;;;;;;;15.84;33.31;100769.50;1720529;82;21446;-77
2021/05/10 08:56:05;;;;;;;1.85;1.50;;;;;;;15.87;33.26;100777.14;1730481;82;21086;-76
2021/05/10 08:58:41;;;;;;;2.90;1.75;;;;;;;15.92;33.20;100774.45;1718459;82;21578;-76
2021/05/10 09:01:09;;;;;;;2.10;1.85;;;;;;;15.93;32.32;100771.20;1729247;82;21158;-71
2021/05/10 09:03:41;;;;;;;2.83;2.12;;;;;;;15.88;32.72;100771.97;1731599;81;21147;-70
2021/05/10 09:06:12;;;;;;;3.83;2.45;;;;;;;15.89;32.68;100772.26;1730138;82;21240;-72
2021/05/10 09:08:43;;;;;;;2.75;2.55;;;;;;;15.93;32.74;100770.66;1730241;82;21013;-71
2021/05/10 09:11:14;;;;;;;2.90;2.25;;;;;;;16.02;32.96;100765.57;1727763;82;21185;-70
2021/05/10 09:13:59;;;;;;;3.50;3.17;;;;;;;16.12;33.07;100769.19;1723358;82;21139;-73
2021/05/10 09:16:27;;;;;;;4.97;2.55;;;;;;;16.25;33.14;100754.91;1730887;82;21177;-72
2021/05/10 09:18:57;;;;;;;3.00;2.22;;;;;;;16.37;33.09;100749.55;1726824;82;21418;-72
2021/05/10 09:21:28;;;;;;;6.22;2.17;;;;;;;16.47;32.54;100751.52;1728543;82;21039;-71
2021/05/10 09:23:58;;;;;;;2.55;2.25;;;;;;;16.54;32.49;100750.75;1731935;82;21133;-71
2021/05/10 09:26:34;;;;;;;2.40;1.92;;;;;;;16.54;32.25;100742.60;1702340;83;21156;-70
2021/05/10 09:29:03;;;;;;;2.08;1.80;;;;;;;16.59;32.51;100753.53;1720857;82;21550;-77
2021/05/10 09:31:30;;;;;;;1.70;1.60;;;;;;;16.63;32.75;100748.38;1721627;82;21168;-71
2021/05/10 09:33:58;;;;;;;2.12;1.90;;;;;;;16.70;32.43;100746.22;1719761;82;21189;-73
2021/05/10 09:36:37;;;;;;;2.45;1.70;;;;;;;16.73;31.84;100742.46;1724084;82;21164;-67
2021/05/10 09:39:33;;;;;;;5.25;3.58;;;;;;;16.69;32.23;100729.10;1712144;82;21616;-70
2021/05/10 09:42:05;;;;;;;2.40;2.20;;;;;;;16.77;32.38;100732.69;1692629;82;21189;-69
2021/05/10 09:44:43;;;;;;;4.03;1.98;;;;;;;16.88;32.18;100724.05;1725788;82;21371;-71
2021/05/10 09:47:15;;;;;;;2.50;2.30;;;;;;;16.92;31.46;100731.41;1720082;82;21260;-72
2021/05/10 09:49:48;;;;;;;3.30;2.02;;;;;;;16.75;30.65;100732.13;1711582;82;21030;-75
2021/05/10 09:52:24;;;;;;;2.25;2.05;;;;;;;16.66;31.49;100726.11;1720256;82;21156;-72
2021/05/10 09:54:59;;;;;;;2.08;1.57;;;;;;;16.74;32.34;100726.41;1730083;82;21184;-73
2021/05/10 09:57:29;;;;;;;10.95;1.72;;;;;;;16.83;32.02;100718.59;1694689;82;22153;-72
2021/05/10 10:00:17;;;;;;;1.80;1.70;;;;;;;16.93;32.38;100712.63;1721508;82;21080;-75
2021/05/10 10:02:45;;;;;;;1.85;1.75;;;;;;;17.06;31.70;100712.69;1715830;82;21165;-77
2021/05/10 10:05:13;;;;;;;2.08;1.50;;;;;;;17.12;31.32;100714.31;1729192;82;21141;-71
2021/05/10 10:07:41;;;;;;;2.77;1.82;;;;;;;17.17;31.29;100702.66;1700368;82;21205;-77
2021/05/10 10:10:10;;;;;;;2.08;1.85;;;;;;;17.21;31.11;100699.67;1702996;82;21147;-76
2021/05/10 10:12:38;;;;;;;4.50;1.62;;;;;;;17.18;30.61;100703.73;1728348;82;21156;-76
2021/05/10 10:15:08;;;;;;;1.55;1.20;;;;;;;17.13;31.09;100698.82;1726627;83;22193;-77
2021/05/10 10:17:36;;;;;;;4.22;1.80;;;;;;;17.21;31.60;100688.27;1726520;83;21172;-75
2021/05/10 10:20:08;;;;;;;8.28;1.70;;;;;;;17.35;32.82;100688.02;1696005;84;21570;-76
2021/05/10 10:22:36;;;;;;;2.27;1.87;;;;;;;17.51;32.08;100690.17;1742374;81;21321;-76
2021/05/10 10:25:05;;;;;;;2.90;2.45;;;;;;;17.61;32.07;100683.41;1716130;83;21185;-76
2021/05/10 10:27:35;;;;;;;3.80;1.90;;;;;;;17.75;31.54;100679.06;1739377;82;21120;-76
2021/05/10 10:30:04;;;;;;;3.85;2.52;;;;;;;17.86;31.09;100672.53;1768797;80;21483;-76
2021/05/10 10:32:33;;;;;;;11.95;2.65;;;;;;;17.96;30.69;100671.70;1707666;82;21134;-71
2021/05/10 10:35:03;;;;;;;2.92;2.15;;;;;;;17.96;30.25;100672.23;1755052;81;21537;-73
2021/05/10 10:37:31;;;;;;;3.27;1.77;;;;;;;17.94;30.34;100669.00;1720987;83;21176;-71
2021/05/10 10:40:02;;;;;;;1.80;1.70;;;;;;;17.99;30.94;100670.31;1720126;83;21661;-70
2021/05/10 10:42:30;;;;;;;2.12;1.50;;;;;;;18.12;30.32;100665.14;1758924;80;21594;-71
2021/05/10 10:45:01;;;;;;;8.33;1.80;;;;;;;18.24;30.32;100666.19;1781330;80;21571;-70
2021/05/10 10:47:57;;;;;;;3.42;1.80;;;;;;;18.36;30.60;100665.89;1781334;80;21281;-71
2021/05/10 10:50:26;;;;;;;2.22;2.05;;;;;;;18.28;30.04;100655.83;1724974;83;21606;-72
2021/05/10 10:52:59;;;;;;;3.12;2.12;;;;;;;18.27;31.23;100652.83;1725433;81;21148;-74
2021/05/10 10:55:41;;;;;;;4.08;1.95;;;;;;;18.36;30.93;100644.92;1753167;81;21153;-73
2021/05/10 10:58:23;;;;;;;3.80;2.27;;;;;;;18.39;31.29;100642.99;1703977;84;21118;-71
2021/05/10 11:01:18;;;;;;;4.50;1.90;;;;;;;18.50;30.58;100651.41;1703767;84;21177;-76
2021/05/10 11:03:47;;;;;;;2.98;2.50;;;;;;;18.63;30.32;100651.38;1715980;83;21570;-75
2021/05/10 11:06:15;;;;;;;3.00;2.00;;;;;;;18.81;30.55;100643.09;1723243;83;21109;-74
2021/05/10 11:08:53;;;;;;;2.50;1.90;;;;;;;18.92;29.99;100637.86;1714081;82;21054;-74
2021/05/10 11:11:37;;;;;;;3.17;2.42;;;;;;;18.92;29.18;100631.86;1719394;83;21212;-79
2021/05/10 11:14:04;;;;;;;2.58;2.37;;;;;;;18.85;29.56;100629.20;1721172;82;21362;-71
2021/05/10 11:16:45;;;;;;;2.05;1.72;;;;;;;18.86;29.83;100628.89;1733150;82;21141;-72
2021/05/10 11:19:37;;;;;;;2.50;1.80;;;;;;;18.84;29.74;100627.02;1733356;82;21603;-74
2021/05/10 11:22:32;;;;;;;1.62;1.52;;;;;;;18.83;29.33;100621.29;1757342;80;21215;-72
2021/05/10 11:25:41;;;;;;;2.62;1.80;;;;;;;18.91;28.98;100619.87;1687903;83;21208;-73
2021/05/10 11:28:30;;;;;;;3.70;2.22;;;;;;;18.90;28.79;100617.69;1722611;83;21494;-81
2021/05/10 11:31:04;;;;;;;4.78;2.75;;;;;;;18.78;28.75;100617.23;1719181;83;21654;-76
2021/05/10 11:33:55;;;;;;;3.75;1.55;;;;;;;18.68;29.62;100608.56;1714510;83;21622;-77
2021/05/10 11:36:27;;;;;;;5.37;2.72;;;;;;;18.77;29.75;100610.14;1710671;80;21066;-76
2021/05/10 11:39:09;;;;;;;5.62;2.47;;;;;;;18.89;29.53;100609.27;1783430;80;21141;-73
2021/05/10 11:41:41;;;;;;;1.72;1.42;;;;;;;18.98;29.35;100608.12;1773882;80;21568;-75
2021/05/10 11:44:13;;;;;;;9.15;1.85;;;;;;;19.09;29.69;100598.74;1742351;82;21142;-75